sensor_id;sensor_type;location;lat;lon;timestamp;temperature;humidity
74968;SHT30;63523;51.880;12.630;2023-10-19T00:00:48;8.62;70.59
74968;SHT30;63523;51.880;12.630;2023-10-19T00:03:18;8.66;70.52
74968;SHT30;63523;51.880;12.630;2023-10-19T00:05:44;8.63;70.51
74968;SHT30;63523;51.880;12.630;2023-10-19T00:08:10;8.62;70.59
74968;SHT30;63523;51.880;12.630;2023-10-19T00:10:48;8.60;70.64
74968;SHT30;63523;51.880;12.630;2023-10-19T00:13:15;8.62;70.39
74968;SHT30;63523;51.880;12.630;2023-10-19T00:15:42;8.57;70.74
74968;SHT30;63523;51.880;12.630;2023-10-19T00:18:18;8.57;70.65
74968;SHT30;63523;51.880;12.630;2023-10-19T00:20:50;8.56;70.51
74968;SHT30;63523;51.880;12.630;2023-10-19T00:23:23;8.70;70.34
74968;SHT30;63523;51.880;12.630;2023-10-19T00:25:57;8.71;69.84
74968;SHT30;63523;51.880;12.630;2023-10-19T00:28:22;8.74;70.05
74968;SHT30;63523;51.880;12.630;2023-10-19T00:30:48;8.67;70.27
74968;SHT30;63523;51.880;12.630;2023-10-19T00:33:16;8.69;70.30
74968;SHT30;63523;51.880;12.630;2023-10-19T00:35:43;8.70;69.95
74968;SHT30;63523;51.880;12.630;2023-10-19T00:38:27;8.66;70.20
74968;SHT30;63523;51.880;12.630;2023-10-19T00:40:53;8.62;70.66
74968;SHT30;63523;51.880;12.630;2023-10-19T00:43:30;8.70;70.16
74968;SHT30;63523;51.880;12.630;2023-10-19T00:46:03;8.71;69.68
74968;SHT30;63523;51.880;12.630;2023-10-19T00:48:55;8.71;69.86
74968;SHT30;63523;51.880;12.630;2023-10-19T00:51:26;8.67;69.99
74968;SHT30;63523;51.880;12.630;2023-10-19T00:54:06;8.73;69.82
74968;SHT30;63523;51.880;12.630;2023-10-19T00:56:37;8.70;69.73
74968;SHT30;63523;51.880;12.630;2023-10-19T00:59:03;8.69;69.67
74968;SHT30;63523;51.880;12.630;2023-10-19T01:01:45;8.73;69.83
74968;SHT30;63523;51.880;12.630;2023-10-19T01:04:14;8.73;69.57
74968;SHT30;63523;51.880;12.630;2023-10-19T01:06:44;8.74;69.57
74968;SHT30;63523;51.880;12.630;2023-10-19T01:09:12;8.71;69.53
74968;SHT30;63523;51.880;12.630;2023-10-19T01:11:43;8.77;69.31
74968;SHT30;63523;51.880;12.630;2023-10-19T01:14:19;8.84;69.23
74968;SHT30;63523;51.880;12.630;2023-10-19T01:16:46;8.77;69.32
74968;SHT30;63523;51.880;12.630;2023-10-19T01:19:13;8.74;69.56
74968;SHT30;63523;51.880;12.630;2023-10-19T01:21:38;8.79;69.59
74968;SHT30;63523;51.880;12.630;2023-10-19T01:24:10;8.84;69.42
74968;SHT30;63523;51.880;12.630;2023-10-19T01:26:42;8.81;69.57
74968;SHT30;63523;51.880;12.630;2023-10-19T01:29:07;8.85;69.49
74968;SHT30;63523;51.880;12.630;2023-10-19T01:31:41;8.84;69.40
74968;SHT30;63523;51.880;12.630;2023-10-19T01:34:20;8.92;69.03
74968;SHT30;63523;51.880;12.630;2023-10-19T01:36:47;8.97;69.04
74968;SHT30;63523;51.880;12.630;2023-10-19T01:39:15;8.91;69.12
74968;SHT30;63523;51.880;12.630;2023-10-19T01:41:44;8.87;69.12
74968;SHT30;63523;51.880;12.630;2023-10-19T01:44:09;8.83;69.11
74968;SHT30;63523;51.880;12.630;2023-10-19T01:46:39;8.83;69.35
74968;SHT30;63523;51.880;12.630;2023-10-19T01:49:04;8.84;69.89
74968;SHT30;63523;51.880;12.630;2023-10-19T01:51:32;8.85;69.33
74968;SHT30;63523;51.880;12.630;2023-10-19T01:53:59;8.77;69.57
74968;SHT30;63523;51.880;12.630;2023-10-19T01:56:26;8.79;69.44
74968;SHT30;63523;51.880;12.630;2023-10-19T01:58:52;8.79;69.60
74968;SHT30;63523;51.880;12.630;2023-10-19T02:01:18;8.88;69.36
74968;SHT30;63523;51.880;12.630;2023-10-19T02:03:58;8.83;69.59
74968;SHT30;63523;51.880;12.630;2023-10-19T02:06:25;8.92;69.28
74968;SHT30;63523;51.880;12.630;2023-10-19T02:11:34;8.90;69.21
74968;SHT30;63523;51.880;12.630;2023-10-19T02:14:03;8.92;69.61
74968;SHT30;63523;51.880;12.630;2023-10-19T02:16:31;8.85;69.18
74968;SHT30;63523;51.880;12.630;2023-10-19T02:18:58;8.81;69.81
74968;SHT30;63523;51.880;12.630;2023-10-19T02:21:23;8.79;69.63
74968;SHT30;63523;51.880;12.630;2023-10-19T02:23:53;8.79;69.67
74968;SHT30;63523;51.880;12.630;2023-10-19T02:26:21;8.81;69.92
74968;SHT30;63523;51.880;12.630;2023-10-19T02:28:53;8.85;69.66
74968;SHT30;63523;51.880;12.630;2023-10-19T02:31:22;8.90;69.84
74968;SHT30;63523;51.880;12.630;2023-10-19T02:33:49;8.85;69.81
74968;SHT30;63523;51.880;12.630;2023-10-19T02:36:18;8.85;70.15
74968;SHT30;63523;51.880;12.630;2023-10-19T02:38:45;8.83;70.29
74968;SHT30;63523;51.880;12.630;2023-10-19T02:41:17;8.85;70.43
74968;SHT30;63523;51.880;12.630;2023-10-19T02:43:43;8.84;70.97
74968;SHT30;63523;51.880;12.630;2023-10-19T02:46:15;8.79;71.03
74968;SHT30;63523;51.880;12.630;2023-10-19T02:48:42;8.77;71.43
74968;SHT30;63523;51.880;12.630;2023-10-19T02:51:11;8.74;71.32
74968;SHT30;63523;51.880;12.630;2023-10-19T02:53:38;8.80;70.95
74968;SHT30;63523;51.880;12.630;2023-10-19T02:56:14;8.80;71.37
74968;SHT30;63523;51.880;12.630;2023-10-19T02:58:45;8.79;71.22
74968;SHT30;63523;51.880;12.630;2023-10-19T03:01:18;8.70;71.52
74968;SHT30;63523;51.880;12.630;2023-10-19T03:03:50;8.74;71.24
74968;SHT30;63523;51.880;12.630;2023-10-19T03:06:20;8.69;72.33
74968;SHT30;63523;51.880;12.630;2023-10-19T03:08:46;8.69;72.53
74968;SHT30;63523;51.880;12.630;2023-10-19T03:11:13;8.70;73.24
74968;SHT30;63523;51.880;12.630;2023-10-19T03:13:39;8.80;71.97
74968;SHT30;63523;51.880;12.630;2023-10-19T03:16:06;8.76;71.86
74968;SHT30;63523;51.880;12.630;2023-10-19T03:18:34;8.79;72.32
74968;SHT30;63523;51.880;12.630;2023-10-19T03:21:01;8.69;72.03
74968;SHT30;63523;51.880;12.630;2023-10-19T03:23:26;8.67;73.10
74968;SHT30;63523;51.880;12.630;2023-10-19T03:25:56;8.71;72.88
74968;SHT30;63523;51.880;12.630;2023-10-19T03:28:41;8.74;72.53
74968;SHT30;63523;51.880;12.630;2023-10-19T03:31:08;8.63;73.58
74968;SHT30;63523;51.880;12.630;2023-10-19T03:33:34;8.62;74.02
74968;SHT30;63523;51.880;12.630;2023-10-19T03:36:01;8.52;74.19
74968;SHT30;63523;51.880;12.630;2023-10-19T03:38:27;8.45;75.32
74968;SHT30;63523;51.880;12.630;2023-10-19T03:40:56;8.49;75.25
74968;SHT30;63523;51.880;12.630;2023-10-19T03:43:25;8.41;75.48
74968;SHT30;63523;51.880;12.630;2023-10-19T03:45:52;8.32;75.87
74968;SHT30;63523;51.880;12.630;2023-10-19T03:48:19;8.28;75.60
74968;SHT30;63523;51.880;12.630;2023-10-19T03:50:50;8.16;76.22
74968;SHT30;63523;51.880;12.630;2023-10-19T03:53:17;8.22;76.24
74968;SHT30;63523;51.880;12.630;2023-10-19T03:55:46;8.22;76.06
74968;SHT30;63523;51.880;12.630;2023-10-19T03:58:12;8.24;76.25
74968;SHT30;63523;51.880;12.630;2023-10-19T04:00:37;8.21;76.05
74968;SHT30;63523;51.880;12.630;2023-10-19T04:03:03;8.18;75.94
74968;SHT30;63523;51.880;12.630;2023-10-19T04:05:28;8.16;76.90
74968;SHT30;63523;51.880;12.630;2023-10-19T04:07:53;8.18;76.71
74968;SHT30;63523;51.880;12.630;2023-10-19T04:10:22;8.11;77.30
74968;SHT30;63523;51.880;12.630;2023-10-19T04:13:00;8.08;77.57
74968;SHT30;63523;51.880;12.630;2023-10-19T04:15:26;8.02;77.64
74968;SHT30;63523;51.880;12.630;2023-10-19T04:17:52;8.08;77.71
74968;SHT30;63523;51.880;12.630;2023-10-19T04:20:18;8.01;78.26
74968;SHT30;63523;51.880;12.630;2023-10-19T04:22:45;8.08;77.65
74968;SHT30;63523;51.880;12.630;2023-10-19T04:25:10;8.07;78.23
74968;SHT30;63523;51.880;12.630;2023-10-19T04:27:46;8.05;78.18
74968;SHT30;63523;51.880;12.630;2023-10-19T04:30:12;7.97;78.45
74968;SHT30;63523;51.880;12.630;2023-10-19T04:32:45;7.93;78.79
74968;SHT30;63523;51.880;12.630;2023-10-19T04:35:12;7.90;79.66
74968;SHT30;63523;51.880;12.630;2023-10-19T04:37:46;7.90;79.71
74968;SHT30;63523;51.880;12.630;2023-10-19T04:40:11;7.81;80.35
74968;SHT30;63523;51.880;12.630;2023-10-19T04:42:40;7.76;79.96
74968;SHT30;63523;51.880;12.630;2023-10-19T04:45:05;7.73;80.72
74968;SHT30;63523;51.880;12.630;2023-10-19T04:47:32;7.63;80.80
74968;SHT30;63523;51.880;12.630;2023-10-19T04:50:00;7.63;81.16
74968;SHT30;63523;51.880;12.630;2023-10-19T04:52:26;7.56;81.52
74968;SHT30;63523;51.880;12.630;2023-10-19T04:54:51;7.62;81.36
74968;SHT30;63523;51.880;12.630;2023-10-19T04:57:16;7.62;81.49
74968;SHT30;63523;51.880;12.630;2023-10-19T04:59:42;7.65;81.51
74968;SHT30;63523;51.880;12.630;2023-10-19T05:02:10;7.53;82.28
74968;SHT30;63523;51.880;12.630;2023-10-19T05:04:36;7.51;82.70
74968;SHT30;63523;51.880;12.630;2023-10-19T05:07:01;7.45;82.66
74968;SHT30;63523;51.880;12.630;2023-10-19T05:09:29;7.52;82.65
74968;SHT30;63523;51.880;12.630;2023-10-19T05:11:54;7.56;82.54
74968;SHT30;63523;51.880;12.630;2023-10-19T05:14:20;7.48;82.76
74968;SHT30;63523;51.880;12.630;2023-10-19T05:16:45;7.53;82.84
74968;SHT30;63523;51.880;12.630;2023-10-19T05:19:11;7.55;82.45
74968;SHT30;63523;51.880;12.630;2023-10-19T05:21:36;7.49;83.15
74968;SHT30;63523;51.880;12.630;2023-10-19T05:24:01;7.52;83.00
74968;SHT30;63523;51.880;12.630;2023-10-19T05:26:27;7.51;82.99
74968;SHT30;63523;51.880;12.630;2023-10-19T05:28:52;7.39;83.92
74968;SHT30;63523;51.880;12.630;2023-10-19T05:31:19;7.38;83.97
74968;SHT30;63523;51.880;12.630;2023-10-19T05:33:44;7.48;83.76
74968;SHT30;63523;51.880;12.630;2023-10-19T05:36:10;7.41;84.06
74968;SHT30;63523;51.880;12.630;2023-10-19T05:38:35;7.38;84.34
74968;SHT30;63523;51.880;12.630;2023-10-19T05:41:01;7.36;84.56
74968;SHT30;63523;51.880;12.630;2023-10-19T05:43:26;7.45;84.41
74968;SHT30;63523;51.880;12.630;2023-10-19T05:45:51;7.41;84.27
74968;SHT30;63523;51.880;12.630;2023-10-19T05:48:17;7.38;84.52
74968;SHT30;63523;51.880;12.630;2023-10-19T05:50:42;7.45;84.40
74968;SHT30;63523;51.880;12.630;2023-10-19T05:53:08;7.39;84.83
74968;SHT30;63523;51.880;12.630;2023-10-19T05:55:33;7.42;84.43
74968;SHT30;63523;51.880;12.630;2023-10-19T05:58:01;7.46;84.49
74968;SHT30;63523;51.880;12.630;2023-10-19T06:00:29;7.48;84.35
74968;SHT30;63523;51.880;12.630;2023-10-19T06:02:55;7.51;84.20
74968;SHT30;63523;51.880;12.630;2023-10-19T06:05:21;7.46;84.34
74968;SHT30;63523;51.880;12.630;2023-10-19T06:07:48;7.45;84.58
74968;SHT30;63523;51.880;12.630;2023-10-19T06:10:17;7.35;85.11
74968;SHT30;63523;51.880;12.630;2023-10-19T06:12:43;7.42;85.02
74968;SHT30;63523;51.880;12.630;2023-10-19T06:15:10;7.41;84.98
74968;SHT30;63523;51.880;12.630;2023-10-19T06:17:37;7.39;85.19
74968;SHT30;63523;51.880;12.630;2023-10-19T06:20:04;7.43;84.83
74968;SHT30;63523;51.880;12.630;2023-10-19T06:22:30;7.45;84.93
74968;SHT30;63523;51.880;12.630;2023-10-19T06:24:55;7.43;85.31
74968;SHT30;63523;51.880;12.630;2023-10-19T06:27:20;7.46;85.06
74968;SHT30;63523;51.880;12.630;2023-10-19T06:29:46;7.46;85.17
74968;SHT30;63523;51.880;12.630;2023-10-19T06:32:11;7.48;85.33
74968;SHT30;63523;51.880;12.630;2023-10-19T06:34:38;7.59;84.63
74968;SHT30;63523;51.880;12.630;2023-10-19T06:37:03;7.56;84.80
74968;SHT30;63523;51.880;12.630;2023-10-19T06:39:32;7.53;84.81
74968;SHT30;63523;51.880;12.630;2023-10-19T06:41:57;7.55;84.89
74968;SHT30;63523;51.880;12.630;2023-10-19T06:44:23;7.53;85.09
74968;SHT30;63523;51.880;12.630;2023-10-19T06:46:48;7.51;85.28
74968;SHT30;63523;51.880;12.630;2023-10-19T06:49:13;7.49;85.43
74968;SHT30;63523;51.880;12.630;2023-10-19T06:51:40;7.55;85.00
74968;SHT30;63523;51.880;12.630;2023-10-19T06:54:05;7.60;84.82
74968;SHT30;63523;51.880;12.630;2023-10-19T06:56:33;7.63;84.84
74968;SHT30;63523;51.880;12.630;2023-10-19T06:59:02;7.59;84.86
74968;SHT30;63523;51.880;12.630;2023-10-19T07:01:29;7.60;85.03
74968;SHT30;63523;51.880;12.630;2023-10-19T07:03:57;7.62;84.95
74968;SHT30;63523;51.880;12.630;2023-10-19T07:06:23;7.67;84.81
74968;SHT30;63523;51.880;12.630;2023-10-19T07:08:49;7.58;85.33
74968;SHT30;63523;51.880;12.630;2023-10-19T07:11:14;7.60;85.44
74968;SHT30;63523;51.880;12.630;2023-10-19T07:13:39;7.55;85.35
74968;SHT30;63523;51.880;12.630;2023-10-19T07:16:05;7.59;85.54
74968;SHT30;63523;51.880;12.630;2023-10-19T07:18:31;7.62;85.46
74968;SHT30;63523;51.880;12.630;2023-10-19T07:20:56;7.69;85.06
74968;SHT30;63523;51.880;12.630;2023-10-19T07:23:28;7.65;85.50
74968;SHT30;63523;51.880;12.630;2023-10-19T07:25:54;7.71;85.24
74968;SHT30;63523;51.880;12.630;2023-10-19T07:28:22;7.73;85.25
74968;SHT30;63523;51.880;12.630;2023-10-19T07:30:47;7.77;84.85
74968;SHT30;63523;51.880;12.630;2023-10-19T07:33:14;7.74;85.14
74968;SHT30;63523;51.880;12.630;2023-10-19T07:35:44;7.77;85.06
74968;SHT30;63523;51.880;12.630;2023-10-19T07:38:13;7.69;85.33
74968;SHT30;63523;51.880;12.630;2023-10-19T07:40:38;7.70;85.27
74968;SHT30;63523;51.880;12.630;2023-10-19T07:43:04;7.66;85.52
74968;SHT30;63523;51.880;12.630;2023-10-19T07:45:30;7.71;85.48
74968;SHT30;63523;51.880;12.630;2023-10-19T07:47:57;7.69;85.56
74968;SHT30;63523;51.880;12.630;2023-10-19T07:50:23;7.79;85.22
74968;SHT30;63523;51.880;12.630;2023-10-19T07:52:53;7.84;85.11
74968;SHT30;63523;51.880;12.630;2023-10-19T07:55:20;7.83;85.22
74968;SHT30;63523;51.880;12.630;2023-10-19T07:57:51;7.86;85.29
74968;SHT30;63523;51.880;12.630;2023-10-19T08:00:18;7.79;85.53
74968;SHT30;63523;51.880;12.630;2023-10-19T08:02:43;7.87;85.52
74968;SHT30;63523;51.880;12.630;2023-10-19T08:05:13;7.94;85.09
74968;SHT30;63523;51.880;12.630;2023-10-19T08:07:40;7.94;85.38
74968;SHT30;63523;51.880;12.630;2023-10-19T08:10:11;7.90;85.43
74968;SHT30;63523;51.880;12.630;2023-10-19T08:12:38;7.93;85.38
74968;SHT30;63523;51.880;12.630;2023-10-19T08:15:07;7.97;85.34
74968;SHT30;63523;51.880;12.630;2023-10-19T08:17:33;7.99;85.51
74968;SHT30;63523;51.880;12.630;2023-10-19T08:19:59;7.93;85.98
74968;SHT30;63523;51.880;12.630;2023-10-19T08:22:27;8.11;85.40
74968;SHT30;63523;51.880;12.630;2023-10-19T08:24:53;8.15;85.39
74968;SHT30;63523;51.880;12.630;2023-10-19T08:27:20;8.22;85.03
74968;SHT30;63523;51.880;12.630;2023-10-19T08:29:46;8.32;84.64
74968;SHT30;63523;51.880;12.630;2023-10-19T08:32:12;8.25;84.94
74968;SHT30;63523;51.880;12.630;2023-10-19T08:34:37;8.29;84.68
74968;SHT30;63523;51.880;12.630;2023-10-19T08:37:03;8.29;85.06
74968;SHT30;63523;51.880;12.630;2023-10-19T08:39:32;8.35;84.60
74968;SHT30;63523;51.880;12.630;2023-10-19T08:42:04;8.35;84.84
74968;SHT30;63523;51.880;12.630;2023-10-19T08:44:30;8.33;84.90
74968;SHT30;63523;51.880;12.630;2023-10-19T08:46:56;8.39;84.48
74968;SHT30;63523;51.880;12.630;2023-10-19T08:49:22;8.38;84.78
74968;SHT30;63523;51.880;12.630;2023-10-19T08:51:48;8.39;84.63
74968;SHT30;63523;51.880;12.630;2023-10-19T08:54:15;8.29;85.08
74968;SHT30;63523;51.880;12.630;2023-10-19T08:56:41;8.29;85.33
74968;SHT30;63523;51.880;12.630;2023-10-19T08:59:13;8.38;85.16
74968;SHT30;63523;51.880;12.630;2023-10-19T09:01:42;8.45;85.16
74968;SHT30;63523;51.880;12.630;2023-10-19T09:04:11;8.53;85.03
74968;SHT30;63523;51.880;12.630;2023-10-19T09:06:39;8.53;84.78
74968;SHT30;63523;51.880;12.630;2023-10-19T09:09:12;8.60;84.87
74968;SHT30;63523;51.880;12.630;2023-10-19T09:11:47;8.71;84.66
74968;SHT30;63523;51.880;12.630;2023-10-19T09:14:14;8.71;84.80
74968;SHT30;63523;51.880;12.630;2023-10-19T09:16:56;8.71;84.57
74968;SHT30;63523;51.880;12.630;2023-10-19T09:19:42;8.67;85.18
74968;SHT30;63523;51.880;12.630;2023-10-19T09:22:09;8.73;85.52
74968;SHT30;63523;51.880;12.630;2023-10-19T09:24:47;8.87;85.33
74968;SHT30;63523;51.880;12.630;2023-10-19T09:27:16;8.97;84.33
74968;SHT30;63523;51.880;12.630;2023-10-19T09:29:42;8.97;84.44
74968;SHT30;63523;51.880;12.630;2023-10-19T09:32:08;9.01;84.33
74968;SHT30;63523;51.880;12.630;2023-10-19T09:34:36;8.96;84.67
74968;SHT30;63523;51.880;12.630;2023-10-19T09:37:02;9.08;84.50
74968;SHT30;63523;51.880;12.630;2023-10-19T09:39:29;9.03;84.88
74968;SHT30;63523;51.880;12.630;2023-10-19T09:42:06;8.97;84.83
74968;SHT30;63523;51.880;12.630;2023-10-19T09:44:40;9.10;84.82
74968;SHT30;63523;51.880;12.630;2023-10-19T09:47:15;9.07;85.00
74968;SHT30;63523;51.880;12.630;2023-10-19T09:49:44;9.07;85.35
74968;SHT30;63523;51.880;12.630;2023-10-19T09:52:11;9.22;85.28
74968;SHT30;63523;51.880;12.630;2023-10-19T09:54:52;9.31;85.02
74968;SHT30;63523;51.880;12.630;2023-10-19T09:57:27;9.35;84.73
74968;SHT30;63523;51.880;12.630;2023-10-19T09:59:59;9.40;84.74
74968;SHT30;63523;51.880;12.630;2023-10-19T10:02:32;9.43;84.57
74968;SHT30;63523;51.880;12.630;2023-10-19T10:04:57;9.53;84.33
74968;SHT30;63523;51.880;12.630;2023-10-19T10:07:23;9.53;84.26
74968;SHT30;63523;51.880;12.630;2023-10-19T10:09:50;9.70;84.40
74968;SHT30;63523;51.880;12.630;2023-10-19T10:12:23;9.67;84.19
74968;SHT30;63523;51.880;12.630;2023-10-19T10:15:01;9.70;84.18
74968;SHT30;63523;51.880;12.630;2023-10-19T10:17:28;9.73;84.14
74968;SHT30;63523;51.880;12.630;2023-10-19T10:20:28;9.60;84.53
74968;SHT30;63523;51.880;12.630;2023-10-19T10:22:43;9.63;84.46
74968;SHT30;63523;51.880;12.630;2023-10-19T10:25:25;9.76;84.50
74968;SHT30;63523;51.880;12.630;2023-10-19T10:27:51;9.78;84.65
74968;SHT30;63523;51.880;12.630;2023-10-19T10:30:16;9.71;84.72
74968;SHT30;63523;51.880;12.630;2023-10-19T10:32:52;9.86;84.86
74968;SHT30;63523;51.880;12.630;2023-10-19T10:38:07;10.01;84.16
74968;SHT30;63523;51.880;12.630;2023-10-19T10:40:49;10.08;83.78
74968;SHT30;63523;51.880;12.630;2023-10-19T10:43:15;10.11;83.94
74968;SHT30;63523;51.880;12.630;2023-10-19T10:45:41;10.21;84.20
74968;SHT30;63523;51.880;12.630;2023-10-19T10:48:17;10.16;83.85
74968;SHT30;63523;51.880;12.630;2023-10-19T10:50:44;10.24;83.82
74968;SHT30;63523;51.880;12.630;2023-10-19T10:53:11;10.12;84.25
74968;SHT30;63523;51.880;12.630;2023-10-19T10:55:37;10.07;84.37
74968;SHT30;63523;51.880;12.630;2023-10-19T10:58:02;10.16;84.24
74968;SHT30;63523;51.880;12.630;2023-10-19T11:00:28;10.29;83.78
74968;SHT30;63523;51.880;12.630;2023-10-19T11:03:02;10.25;84.37
74968;SHT30;63523;51.880;12.630;2023-10-19T11:05:29;10.39;83.57
74968;SHT30;63523;51.880;12.630;2023-10-19T11:08:10;10.45;83.46
74968;SHT30;63523;51.880;12.630;2023-10-19T11:10:39;10.46;83.38
74968;SHT30;63523;51.880;12.630;2023-10-19T11:13:06;10.46;84.05
74968;SHT30;63523;51.880;12.630;2023-10-19T11:15:54;10.57;83.01
74968;SHT30;63523;51.880;12.630;2023-10-19T11:18:41;10.56;83.19
74968;SHT30;63523;51.880;12.630;2023-10-19T11:21:14;10.63;83.31
74968;SHT30;63523;51.880;12.630;2023-10-19T11:23:49;10.50;83.48
74968;SHT30;63523;51.880;12.630;2023-10-19T11:26:20;10.43;83.40
74968;SHT30;63523;51.880;12.630;2023-10-19T11:28:46;10.45;83.68
74968;SHT30;63523;51.880;12.630;2023-10-19T11:31:23;10.55;83.32
74968;SHT30;63523;51.880;12.630;2023-10-19T11:33:52;10.50;83.52
74968;SHT30;63523;51.880;12.630;2023-10-19T11:36:19;10.53;83.61
74968;SHT30;63523;51.880;12.630;2023-10-19T11:38:46;10.52;83.61
74968;SHT30;63523;51.880;12.630;2023-10-19T11:41:13;10.48;83.88
74968;SHT30;63523;51.880;12.630;2023-10-19T11:43:43;10.49;84.30
74968;SHT30;63523;51.880;12.630;2023-10-19T11:46:09;10.64;83.35
74968;SHT30;63523;51.880;12.630;2023-10-19T11:48:36;10.64;83.53
74968;SHT30;63523;51.880;12.630;2023-10-19T11:51:03;10.56;83.78
74968;SHT30;63523;51.880;12.630;2023-10-19T11:53:33;10.50;84.18
74968;SHT30;63523;51.880;12.630;2023-10-19T11:56:04;10.63;84.20
74968;SHT30;63523;51.880;12.630;2023-10-19T11:58:31;10.70;83.97
74968;SHT30;63523;51.880;12.630;2023-10-19T12:01:03;10.57;83.66
74968;SHT30;63523;51.880;12.630;2023-10-19T12:03:31;10.50;84.59
74968;SHT30;63523;51.880;12.630;2023-10-19T12:05:56;10.46;84.86
74968;SHT30;63523;51.880;12.630;2023-10-19T12:08:22;10.55;85.00
74968;SHT30;63523;51.880;12.630;2023-10-19T12:10:48;10.60;84.89
74968;SHT30;63523;51.880;12.630;2023-10-19T12:13:14;10.67;84.72
74968;SHT30;63523;51.880;12.630;2023-10-19T12:15:41;10.77;84.57
74968;SHT30;63523;51.880;12.630;2023-10-19T12:18:06;10.84;83.71
74968;SHT30;63523;51.880;12.630;2023-10-19T12:20:33;10.95;83.76
74968;SHT30;63523;51.880;12.630;2023-10-19T12:23:00;11.08;83.26
74968;SHT30;63523;51.880;12.630;2023-10-19T12:25:26;11.08;83.04
74968;SHT30;63523;51.880;12.630;2023-10-19T12:28:00;11.10;83.27
74968;SHT30;63523;51.880;12.630;2023-10-19T12:30:25;11.14;82.87
74968;SHT30;63523;51.880;12.630;2023-10-19T12:32:57;11.04;82.92
74968;SHT30;63523;51.880;12.630;2023-10-19T12:35:23;10.97;83.38
74968;SHT30;63523;51.880;12.630;2023-10-19T12:38:07;11.04;83.23
74968;SHT30;63523;51.880;12.630;2023-10-19T12:40:40;11.16;82.87
74968;SHT30;63523;51.880;12.630;2023-10-19T12:43:06;11.08;83.16
74968;SHT30;63523;51.880;12.630;2023-10-19T12:45:32;11.18;82.86
74968;SHT30;63523;51.880;12.630;2023-10-19T12:48:03;11.19;83.07
74968;SHT30;63523;51.880;12.630;2023-10-19T12:50:29;11.22;83.31
74968;SHT30;63523;51.880;12.630;2023-10-19T12:52:56;11.28;83.13
74968;SHT30;63523;51.880;12.630;2023-10-19T12:55:21;11.21;82.96
74968;SHT30;63523;51.880;12.630;2023-10-19T12:57:46;11.22;82.67
74968;SHT30;63523;51.880;12.630;2023-10-19T13:00:12;11.28;82.38
74968;SHT30;63523;51.880;12.630;2023-10-19T13:02:51;11.26;82.64
74968;SHT30;63523;51.880;12.630;2023-10-19T13:05:17;11.18;82.91
74968;SHT30;63523;51.880;12.630;2023-10-19T13:07:45;11.22;82.86
74968;SHT30;63523;51.880;12.630;2023-10-19T13:10:11;11.24;82.84
74968;SHT30;63523;51.880;12.630;2023-10-19T13:12:38;11.11;83.42
74968;SHT30;63523;51.880;12.630;2023-10-19T13:15:05;11.14;83.43
74968;SHT30;63523;51.880;12.630;2023-10-19T13:17:40;11.15;83.68
74968;SHT30;63523;51.880;12.630;2023-10-19T13:20:08;11.18;83.65
74968;SHT30;63523;51.880;12.630;2023-10-19T13:22:46;11.28;83.03
74968;SHT30;63523;51.880;12.630;2023-10-19T13:25:12;11.19;83.35
74968;SHT30;63523;51.880;12.630;2023-10-19T13:27:44;11.26;83.34
74968;SHT30;63523;51.880;12.630;2023-10-19T13:30:10;11.35;82.78
74968;SHT30;63523;51.880;12.630;2023-10-19T13:32:36;11.38;82.82
74968;SHT30;63523;51.880;12.630;2023-10-19T13:35:02;11.36;82.92
74968;SHT30;63523;51.880;12.630;2023-10-19T13:37:28;11.25;83.48
74968;SHT30;63523;51.880;12.630;2023-10-19T13:39:53;11.24;83.60
74968;SHT30;63523;51.880;12.630;2023-10-19T13:42:20;11.28;83.04
74968;SHT30;63523;51.880;12.630;2023-10-19T13:44:47;11.25;83.47
74968;SHT30;63523;51.880;12.630;2023-10-19T13:47:12;11.28;83.12
74968;SHT30;63523;51.880;12.630;2023-10-19T13:49:38;11.24;82.87
74968;SHT30;63523;51.880;12.630;2023-10-19T13:52:03;11.12;83.37
74968;SHT30;63523;51.880;12.630;2023-10-19T13:54:30;11.05;83.41
74968;SHT30;63523;51.880;12.630;2023-10-19T13:56:55;10.98;83.70
74968;SHT30;63523;51.880;12.630;2023-10-19T13:59:20;10.98;83.89
74968;SHT30;63523;51.880;12.630;2023-10-19T14:01:46;10.95;84.07
74968;SHT30;63523;51.880;12.630;2023-10-19T14:04:11;10.93;83.92
74968;SHT30;63523;51.880;12.630;2023-10-19T14:06:38;10.93;84.02
74968;SHT30;63523;51.880;12.630;2023-10-19T14:09:03;10.87;84.41
74968;SHT30;63523;51.880;12.630;2023-10-19T14:11:30;10.93;84.40
74968;SHT30;63523;51.880;12.630;2023-10-19T14:13:55;10.90;84.43
74968;SHT30;63523;51.880;12.630;2023-10-19T14:16:21;10.90;84.11
74968;SHT30;63523;51.880;12.630;2023-10-19T14:18:48;10.83;84.58
74968;SHT30;63523;51.880;12.630;2023-10-19T14:21:14;10.87;84.41
74968;SHT30;63523;51.880;12.630;2023-10-19T14:23:40;10.85;84.33
74968;SHT30;63523;51.880;12.630;2023-10-19T14:26:06;10.78;84.76
74968;SHT30;63523;51.880;12.630;2023-10-19T14:28:31;10.77;84.67
74968;SHT30;63523;51.880;12.630;2023-10-19T14:30:57;10.78;84.07
74968;SHT30;63523;51.880;12.630;2023-10-19T14:33:22;10.77;84.19
74968;SHT30;63523;51.880;12.630;2023-10-19T14:35:47;10.67;84.48
74968;SHT30;63523;51.880;12.630;2023-10-19T14:38:13;10.69;84.39
74968;SHT30;63523;51.880;12.630;2023-10-19T14:40:40;10.63;84.75
74968;SHT30;63523;51.880;12.630;2023-10-19T14:43:10;10.66;84.33
74968;SHT30;63523;51.880;12.630;2023-10-19T14:45:36;10.61;84.58
74968;SHT30;63523;51.880;12.630;2023-10-19T14:48:02;10.61;84.94
74968;SHT30;63523;51.880;12.630;2023-10-19T14:50:33;10.64;84.82
74968;SHT30;63523;51.880;12.630;2023-10-19T14:53:00;10.63;84.36
74968;SHT30;63523;51.880;12.630;2023-10-19T14:55:25;10.67;84.79
74968;SHT30;63523;51.880;12.630;2023-10-19T14:57:53;10.73;84.29
74968;SHT30;63523;51.880;12.630;2023-10-19T15:00:19;10.70;84.61
74968;SHT30;63523;51.880;12.630;2023-10-19T15:02:54;10.64;84.46
74968;SHT30;63523;51.880;12.630;2023-10-19T15:05:21;10.59;85.06
74968;SHT30;63523;51.880;12.630;2023-10-19T15:07:49;10.66;84.79
74968;SHT30;63523;51.880;12.630;2023-10-19T15:10:22;10.60;85.02
74968;SHT30;63523;51.880;12.630;2023-10-19T15:12:48;10.63;84.63
74968;SHT30;63523;51.880;12.630;2023-10-19T15:15:14;10.61;84.71
74968;SHT30;63523;51.880;12.630;2023-10-19T15:17:44;10.63;84.61
74968;SHT30;63523;51.880;12.630;2023-10-19T15:20:11;10.63;84.82
74968;SHT30;63523;51.880;12.630;2023-10-19T15:22:40;10.66;84.59
74968;SHT30;63523;51.880;12.630;2023-10-19T15:25:05;10.63;84.58
74968;SHT30;63523;51.880;12.630;2023-10-19T15:27:37;10.64;84.54
74968;SHT30;63523;51.880;12.630;2023-10-19T15:30:04;10.67;84.28
74968;SHT30;63523;51.880;12.630;2023-10-19T15:32:40;10.55;85.07
74968;SHT30;63523;51.880;12.630;2023-10-19T15:35:10;10.56;84.86
74968;SHT30;63523;51.880;12.630;2023-10-19T15:37:36;10.46;85.50